sensor_id;sensor_type;location;lat;lon;timestamp;pressure;altitude;pressure_sealevel;temperature;humidity
21395;BME280;10858;42.714;23.180;2022-08-21T00:01:57;93884.28;;;19.33;89.78
21395;BME280;10858;42.714;23.180;2022-08-21T00:04:24;93883.34;;;19.20;91.02
21395;BME280;10858;42.714;23.180;2022-08-21T00:06:51;93882.31;;;19.21;91.26
21395;BME280;10858;42.714;23.180;2022-08-21T00:09:19;93888.53;;;19.21;91.12
21395;BME280;10858;42.714;23.180;2022-08-21T00:11:45;93888.22;;;19.37;90.90
21395;BME280;10858;42.714;23.180;2022-08-21T00:14:13;93885.38;;;19.52;89.67
21395;BME280;10858;42.714;23.180;2022-08-21T00:16:40;93884.72;;;19.50;89.65
21395;BME280;10858;42.714;23.180;2022-08-21T00:19:07;93873.00;;;19.58;89.55
21395;BME280;10858;42.714;23.180;2022-08-21T00:21:34;93874.88;;;19.64;89.19
21395;BME280;10858;42.714;23.180;2022-08-21T00:24:01;93876.31;;;19.66;89.37
21395;BME280;10858;42.714;23.180;2022-08-21T00:26:27;93870.13;;;19.72;88.89
21395;BME280;10858;42.714;23.180;2022-08-21T00:28:54;93877.59;;;19.77;88.52
21395;BME280;10858;42.714;23.180;2022-08-21T00:31:20;93868.03;;;19.61;89.21
21395;BME280;10858;42.714;23.180;2022-08-21T00:33:46;93862.22;;;19.64;89.50
21395;BME280;10858;42.714;23.180;2022-08-21T00:36:13;93864.53;;;19.67;89.83
21395;BME280;10858;42.714;23.180;2022-08-21T00:38:39;93869.75;;;19.82;89.48
21395;BME280;10858;42.714;23.180;2022-08-21T00:41:09;93875.13;;;19.82;89.21
21395;BME280;10858;42.714;23.180;2022-08-21T00:43:37;93868.91;;;19.81;89.09
21395;BME280;10858;42.714;23.180;2022-08-21T00:46:05;93866.16;;;19.68;89.46
21395;BME280;10858;42.714;23.180;2022-08-21T00:48:33;93863.72;;;19.73;89.10
21395;BME280;10858;42.714;23.180;2022-08-21T00:51:12;93863.09;;;19.71;88.64
21395;BME280;10858;42.714;23.180;2022-08-21T00:53:43;93860.16;;;19.66;88.31
21395;BME280;10858;42.714;23.180;2022-08-21T00:56:11;93865.88;;;19.37;89.07
21395;BME280;10858;42.714;23.180;2022-08-21T00:58:39;93868.84;;;19.21;91.13
21395;BME280;10858;42.714;23.180;2022-08-21T01:01:08;93871.44;;;19.35;90.54
21395;BME280;10858;42.714;23.180;2022-08-21T01:03:35;93877.81;;;19.28;90.63
21395;BME280;10858;42.714;23.180;2022-08-21T01:06:04;93868.84;;;19.21;90.80
21395;BME280;10858;42.714;23.180;2022-08-21T01:08:30;93857.47;;;19.19;90.35
21395;BME280;10858;42.714;23.180;2022-08-21T01:10:57;93855.78;;;19.11;90.36
21395;BME280;10858;42.714;23.180;2022-08-21T01:13:26;93845.16;;;18.97;90.98
21395;BME280;10858;42.714;23.180;2022-08-21T01:15:56;93844.53;;;18.95;91.06
21395;BME280;10858;42.714;23.180;2022-08-21T01:18:23;93847.06;;;19.03;90.15
21395;BME280;10858;42.714;23.180;2022-08-21T01:21:09;93845.41;;;19.02;90.09
21395;BME280;10858;42.714;23.180;2022-08-21T01:23:38;93840.34;;;18.86;91.91
21395;BME280;10858;42.714;23.180;2022-08-21T01:26:05;93836.88;;;18.92;92.27
21395;BME280;10858;42.714;23.180;2022-08-21T01:28:36;93834.81;;;18.94;92.56
21395;BME280;10858;42.714;23.180;2022-08-21T01:31:06;93836.47;;;18.95;92.40
21395;BME280;10858;42.714;23.180;2022-08-21T01:33:33;93832.78;;;19.02;92.35
21395;BME280;10858;42.714;23.180;2022-08-21T01:36:00;93826.84;;;19.13;91.35
21395;BME280;10858;42.714;23.180;2022-08-21T01:38:26;93838.59;;;19.12;90.54
21395;BME280;10858;42.714;23.180;2022-08-21T01:40:52;93843.56;;;19.09;91.10
21395;BME280;10858;42.714;23.180;2022-08-21T01:43:18;93844.66;;;19.21;90.57
21395;BME280;10858;42.714;23.180;2022-08-21T01:45:45;93843.09;;;19.33;90.04
21395;BME280;10858;42.714;23.180;2022-08-21T01:48:11;93847.25;;;19.35;89.50
21395;BME280;10858;42.714;23.180;2022-08-21T01:50:37;93843.94;;;19.40;89.63
21395;BME280;10858;42.714;23.180;2022-08-21T01:53:04;93841.28;;;19.53;88.54
21395;BME280;10858;42.714;23.180;2022-08-21T01:55:30;93831.91;;;19.36;89.06
21395;BME280;10858;42.714;23.180;2022-08-21T01:57:58;93841.38;;;19.32;89.54
21395;BME280;10858;42.714;23.180;2022-08-21T02:00:25;93843.84;;;19.27;89.29
21395;BME280;10858;42.714;23.180;2022-08-21T02:02:52;93837.84;;;19.25;88.94
21395;BME280;10858;42.714;23.180;2022-08-21T02:05:18;93848.38;;;19.20;88.80
21395;BME280;10858;42.714;23.180;2022-08-21T02:07:50;93843.59;;;19.15;88.80
21395;BME280;10858;42.714;23.180;2022-08-21T02:10:21;93844.00;;;19.12;88.19
21395;BME280;10858;42.714;23.180;2022-08-21T02:12:48;93848.53;;;19.05;88.36
21395;BME280;10858;42.714;23.180;2022-08-21T02:15:15;93842.09;;;19.00;88.31
21395;BME280;10858;42.714;23.180;2022-08-21T02:17:56;93840.81;;;18.96;87.65
21395;BME280;10858;42.714;23.180;2022-08-21T02:20:30;93842.00;;;18.87;87.69
21395;BME280;10858;42.714;23.180;2022-08-21T02:22:56;93847.31;;;18.74;88.15
21395;BME280;10858;42.714;23.180;2022-08-21T02:25:24;93857.13;;;18.60;88.46
21395;BME280;10858;42.714;23.180;2022-08-21T02:27:52;93858.50;;;18.49;88.86
21395;BME280;10858;42.714;23.180;2022-08-21T02:30:25;93861.97;;;18.43;88.84
21395;BME280;10858;42.714;23.180;2022-08-21T02:32:51;93856.41;;;18.45;88.48
21395;BME280;10858;42.714;23.180;2022-08-21T02:35:18;93853.00;;;18.36;88.30
21395;BME280;10858;42.714;23.180;2022-08-21T02:37:58;93851.09;;;18.30;88.41
21395;BME280;10858;42.714;23.180;2022-08-21T02:40:31;93853.19;;;18.35;88.41
21395;BME280;10858;42.714;23.180;2022-08-21T02:42:59;93857.66;;;18.28;88.45
21395;BME280;10858;42.714;23.180;2022-08-21T02:45:27;93853.06;;;18.22;88.14
21395;BME280;10858;42.714;23.180;2022-08-21T02:47:59;93860.97;;;18.23;88.47
21395;BME280;10858;42.714;23.180;2022-08-21T02:50:44;93853.34;;;18.27;88.46
21395;BME280;10858;42.714;23.180;2022-08-21T02:53:12;93858.91;;;18.25;88.63
21395;BME280;10858;42.714;23.180;2022-08-21T02:55:44;93859.16;;;18.30;88.42
21395;BME280;10858;42.714;23.180;2022-08-21T02:58:11;93863.25;;;18.26;88.23
21395;BME280;10858;42.714;23.180;2022-08-21T03:00:38;93854.31;;;18.19;88.60
21395;BME280;10858;42.714;23.180;2022-08-21T03:03:05;93863.38;;;18.18;88.39
21395;BME280;10858;42.714;23.180;2022-08-21T03:05:33;93869.59;;;18.19;88.60
21395;BME280;10858;42.714;23.180;2022-08-21T03:08:04;93869.16;;;18.15;88.67
21395;BME280;10858;42.714;23.180;2022-08-21T03:10:30;93873.03;;;18.13;88.86
21395;BME280;10858;42.714;23.180;2022-08-21T03:12:57;93862.50;;;18.11;88.74
21395;BME280;10858;42.714;23.180;2022-08-21T03:15:23;93870.03;;;18.22;88.98
21395;BME280;10858;42.714;23.180;2022-08-21T03:17:51;93865.56;;;18.29;89.34
21395;BME280;10858;42.714;23.180;2022-08-21T03:20:22;93867.53;;;18.21;89.77
21395;BME280;10858;42.714;23.180;2022-08-21T03:22:50;93866.47;;;18.15;90.02
21395;BME280;10858;42.714;23.180;2022-08-21T03:25:17;93862.03;;;18.08;90.44
21395;BME280;10858;42.714;23.180;2022-08-21T03:27:44;93856.56;;;17.95;91.76
21395;BME280;10858;42.714;23.180;2022-08-21T03:30:11;93861.72;;;17.96;92.31
21395;BME280;10858;42.714;23.180;2022-08-21T03:32:37;93860.19;;;18.08;91.22
21395;BME280;10858;42.714;23.180;2022-08-21T03:35:05;93862.59;;;18.24;90.42
21395;BME280;10858;42.714;23.180;2022-08-21T03:37:31;93852.34;;;18.34;89.24
21395;BME280;10858;42.714;23.180;2022-08-21T03:39:58;93863.53;;;18.38;88.50
21395;BME280;10858;42.714;23.180;2022-08-21T03:42:24;93863.38;;;18.18;88.86
21395;BME280;10858;42.714;23.180;2022-08-21T03:44:51;93867.13;;;18.24;88.96
21395;BME280;10858;42.714;23.180;2022-08-21T03:47:17;93861.75;;;18.24;88.28
21395;BME280;10858;42.714;23.180;2022-08-21T03:49:43;93866.94;;;17.98;88.78
21395;BME280;10858;42.714;23.180;2022-08-21T03:52:10;93866.97;;;18.04;89.13
21395;BME280;10858;42.714;23.180;2022-08-21T03:54:36;93873.41;;;18.10;88.70
21395;BME280;10858;42.714;23.180;2022-08-21T03:57:02;93878.34;;;18.06;89.59
21395;BME280;10858;42.714;23.180;2022-08-21T03:59:28;93876.09;;;18.10;90.94
21395;BME280;10858;42.714;23.180;2022-08-21T04:02:00;93881.41;;;18.45;90.54
21395;BME280;10858;42.714;23.180;2022-08-21T04:04:28;93883.91;;;18.47;90.23
21395;BME280;10858;42.714;23.180;2022-08-21T04:06:55;93881.50;;;18.58;91.15
21395;BME280;10858;42.714;23.180;2022-08-21T04:09:22;93880.19;;;18.76;90.79
21395;BME280;10858;42.714;23.180;2022-08-21T04:11:49;93877.38;;;18.90;90.67
21395;BME280;10858;42.714;23.180;2022-08-21T04:14:15;93885.84;;;18.87;90.39
21395;BME280;10858;42.714;23.180;2022-08-21T04:16:43;93886.28;;;18.91;90.25
21395;BME280;10858;42.714;23.180;2022-08-21T04:19:11;93882.84;;;19.03;90.29
21395;BME280;10858;42.714;23.180;2022-08-21T04:21:39;93886.84;;;19.20;89.65
21395;BME280;10858;42.714;23.180;2022-08-21T04:24:07;93887.38;;;19.03;89.88
21395;BME280;10858;42.714;23.180;2022-08-21T04:26:35;93887.25;;;19.17;89.39
21395;BME280;10858;42.714;23.180;2022-08-21T04:29:02;93891.91;;;19.02;89.19
21395;BME280;10858;42.714;23.180;2022-08-21T04:31:29;93891.84;;;18.89;89.78
21395;BME280;10858;42.714;23.180;2022-08-21T04:33:55;93893.31;;;18.92;90.35
21395;BME280;10858;42.714;23.180;2022-08-21T04:36:23;93888.28;;;19.16;89.55
21395;BME280;10858;42.714;23.180;2022-08-21T04:38:50;93894.97;;;19.27;89.34
21395;BME280;10858;42.714;23.180;2022-08-21T04:41:16;93897.75;;;19.06;89.15
21395;BME280;10858;42.714;23.180;2022-08-21T04:43:43;93891.09;;;19.02;89.36
21395;BME280;10858;42.714;23.180;2022-08-21T04:46:09;93887.81;;;19.06;89.80
21395;BME280;10858;42.714;23.180;2022-08-21T04:48:35;93879.00;;;19.19;90.31
21395;BME280;10858;42.714;23.180;2022-08-21T04:55:55;93894.56;;;19.30;90.57
21395;BME280;10858;42.714;23.180;2022-08-21T04:58:23;93896.28;;;19.44;89.90
21395;BME280;10858;42.714;23.180;2022-08-21T05:00:54;93893.59;;;19.44;89.82
21395;BME280;10858;42.714;23.180;2022-08-21T05:03:21;93897.34;;;19.43;90.80
21395;BME280;10858;42.714;23.180;2022-08-21T05:05:48;93887.53;;;19.70;90.29
21395;BME280;10858;42.714;23.180;2022-08-21T05:08:17;93888.31;;;19.70;89.78
21395;BME280;10858;42.714;23.180;2022-08-21T05:10:45;93893.34;;;19.86;89.30
21395;BME280;10858;42.714;23.180;2022-08-21T05:13:13;93894.97;;;19.74;88.78
21395;BME280;10858;42.714;23.180;2022-08-21T05:15:40;93897.09;;;19.85;89.57
21395;BME280;10858;42.714;23.180;2022-08-21T05:18:07;93889.41;;;19.82;89.34
21395;BME280;10858;42.714;23.180;2022-08-21T05:20:34;93893.34;;;19.86;88.43
21395;BME280;10858;42.714;23.180;2022-08-21T05:23:01;93894.84;;;20.08;89.29
21395;BME280;10858;42.714;23.180;2022-08-21T05:25:33;93881.44;;;20.34;89.27
21395;BME280;10858;42.714;23.180;2022-08-21T05:27:59;93882.91;;;20.44;86.35
21395;BME280;10858;42.714;23.180;2022-08-21T05:30:26;93886.03;;;20.47;87.79
21395;BME280;10858;42.714;23.180;2022-08-21T05:45:35;93885.56;;;21.02;83.03
21395;BME280;10858;42.714;23.180;2022-08-21T05:48:18;93881.66;;;20.85;83.21
21395;BME280;10858;42.714;23.180;2022-08-21T05:50:47;93884.78;;;20.50;84.38
21395;BME280;10858;42.714;23.180;2022-08-21T05:53:15;93887.69;;;20.42;85.84
21395;BME280;10858;42.714;23.180;2022-08-21T05:55:42;93878.75;;;20.34;85.63
21395;BME280;10858;42.714;23.180;2022-08-21T05:58:09;93883.34;;;20.54;85.30
21395;BME280;10858;42.714;23.180;2022-08-21T06:00:35;93885.38;;;20.65;85.57
21395;BME280;10858;42.714;23.180;2022-08-21T06:03:02;93880.19;;;21.09;85.61
21395;BME280;10858;42.714;23.180;2022-08-21T06:05:29;93884.16;;;21.64;82.61
21395;BME280;10858;42.714;23.180;2022-08-21T06:07:56;93887.16;;;22.25;81.97
21395;BME280;10858;42.714;23.180;2022-08-21T06:10:23;93885.50;;;22.55;78.64
21395;BME280;10858;42.714;23.180;2022-08-21T06:12:53;93886.13;;;22.57;78.07
21395;BME280;10858;42.714;23.180;2022-08-21T06:15:21;93884.03;;;22.59;76.97
21395;BME280;10858;42.714;23.180;2022-08-21T06:17:47;93885.16;;;22.76;77.11
21395;BME280;10858;42.714;23.180;2022-08-21T06:20:13;93882.69;;;22.74;76.84
21395;BME280;10858;42.714;23.180;2022-08-21T06:22:40;93881.59;;;23.43;74.93
21395;BME280;10858;42.714;23.180;2022-08-21T06:25:06;93880.28;;;24.00;72.34
21395;BME280;10858;42.714;23.180;2022-08-21T06:27:33;93879.63;;;24.34;72.01
21395;BME280;10858;42.714;23.180;2022-08-21T06:30:00;93877.31;;;24.79;69.12
21395;BME280;10858;42.714;23.180;2022-08-21T06:32:26;93879.44;;;24.77;68.14
21395;BME280;10858;42.714;23.180;2022-08-21T06:34:52;93879.78;;;24.92;67.74
21395;BME280;10858;42.714;23.180;2022-08-21T06:37:19;93879.59;;;24.64;68.76
21395;BME280;10858;42.714;23.180;2022-08-21T06:39:45;93882.53;;;24.62;67.85
21395;BME280;10858;42.714;23.180;2022-08-21T06:42:17;93889.00;;;25.02;66.44
21395;BME280;10858;42.714;23.180;2022-08-21T06:44:44;93886.38;;;24.73;65.82
21395;BME280;10858;42.714;23.180;2022-08-21T06:47:11;93894.34;;;25.20;65.35
21395;BME280;10858;42.714;23.180;2022-08-21T06:49:37;93879.03;;;27.35;61.18
21395;BME280;10858;42.714;23.180;2022-08-21T06:52:07;93888.69;;;28.94;53.13
21395;BME280;10858;42.714;23.180;2022-08-21T06:54:34;93878.38;;;31.53;45.55
21395;BME280;10858;42.714;23.180;2022-08-21T06:57:00;93874.75;;;33.16;40.82
21395;BME280;10858;42.714;23.180;2022-08-21T06:59:27;93877.44;;;33.60;40.25
21395;BME280;10858;42.714;23.180;2022-08-21T07:01:53;93883.59;;;33.46;39.55
21395;BME280;10858;42.714;23.180;2022-08-21T07:04:20;93874.28;;;34.05;37.81
21395;BME280;10858;42.714;23.180;2022-08-21T07:06:46;93886.78;;;35.24;35.62
21395;BME280;10858;42.714;23.180;2022-08-21T07:09:12;93888.81;;;35.00;36.30
21395;BME280;10858;42.714;23.180;2022-08-21T07:11:39;93889.19;;;35.31;36.58
21395;BME280;10858;42.714;23.180;2022-08-21T07:14:05;93877.91;;;32.40;39.68
21395;BME280;10858;42.714;23.180;2022-08-21T07:16:31;93894.19;;;29.67;45.56
21395;BME280;10858;42.714;23.180;2022-08-21T07:18:58;93885.88;;;29.15;47.45
21395;BME280;10858;42.714;23.180;2022-08-21T07:21:25;93886.72;;;28.41;51.19
21395;BME280;10858;42.714;23.180;2022-08-21T07:23:52;93891.66;;;28.17;51.93
21395;BME280;10858;42.714;23.180;2022-08-21T07:26:21;93886.09;;;27.52;52.85
21395;BME280;10858;42.714;23.180;2022-08-21T07:28:48;93880.53;;;26.64;56.36
21395;BME280;10858;42.714;23.180;2022-08-21T07:31:18;93885.69;;;27.11;57.92
21395;BME280;10858;42.714;23.180;2022-08-21T07:33:44;93879.19;;;27.45;57.06
21395;BME280;10858;42.714;23.180;2022-08-21T07:36:11;93868.13;;;27.35;54.70
21395;BME280;10858;42.714;23.180;2022-08-21T07:38:38;93871.94;;;27.17;54.63
21395;BME280;10858;42.714;23.180;2022-08-21T07:41:17;93867.56;;;27.93;54.58
21395;BME280;10858;42.714;23.180;2022-08-21T07:43:45;93872.59;;;29.66;47.24
21395;BME280;10858;42.714;23.180;2022-08-21T07:46:12;93859.16;;;31.03;44.62
21395;BME280;10858;42.714;23.180;2022-08-21T07:48:38;93858.91;;;32.54;40.18
21395;BME280;10858;42.714;23.180;2022-08-21T07:51:10;93864.53;;;32.14;39.74
21395;BME280;10858;42.714;23.180;2022-08-21T07:53:37;93863.38;;;30.39;43.71
21395;BME280;10858;42.714;23.180;2022-08-21T07:56:04;93857.78;;;31.11;43.67
21395;BME280;10858;42.714;23.180;2022-08-21T07:58:31;93860.72;;;30.64;44.89
21395;BME280;10858;42.714;23.180;2022-08-21T08:00:58;93859.16;;;31.78;43.99
21395;BME280;10858;42.714;23.180;2022-08-21T08:03:24;93859.28;;;32.81;39.00
21395;BME280;10858;42.714;23.180;2022-08-21T08:05:51;93859.72;;;31.10;42.05
21395;BME280;10858;42.714;23.180;2022-08-21T08:08:17;93865.81;;;29.78;44.83
21395;BME280;10858;42.714;23.180;2022-08-21T08:10:44;93853.53;;;28.49;49.78
21395;BME280;10858;42.714;23.180;2022-08-21T08:13:11;93851.25;;;27.54;54.05
21395;BME280;10858;42.714;23.180;2022-08-21T08:15:38;93843.72;;;28.26;52.37
21395;BME280;10858;42.714;23.180;2022-08-21T08:18:04;93849.75;;;28.28;52.17
21395;BME280;10858;42.714;23.180;2022-08-21T08:20:30;93844.31;;;28.07;54.38
21395;BME280;10858;42.714;23.180;2022-08-21T08:22:57;93847.72;;;27.21;52.81
21395;BME280;10858;42.714;23.180;2022-08-21T08:25:24;93850.97;;;27.34;55.40
21395;BME280;10858;42.714;23.180;2022-08-21T08:27:52;93847.50;;;27.39;54.28
21395;BME280;10858;42.714;23.180;2022-08-21T08:30:20;93846.56;;;29.58;49.46
21395;BME280;10858;42.714;23.180;2022-08-21T08:32:47;93855.59;;;30.05;47.05
21395;BME280;10858;42.714;23.180;2022-08-21T08:35:17;93850.34;;;29.52;46.89
21395;BME280;10858;42.714;23.180;2022-08-21T08:37:43;93845.34;;;29.39;47.23
21395;BME280;10858;42.714;23.180;2022-08-21T08:40:31;93847.63;;;29.52;46.13
21395;BME280;10858;42.714;23.180;2022-08-21T08:42:59;93850.03;;;29.12;47.17
21395;BME280;10858;42.714;23.180;2022-08-21T08:45:26;93850.81;;;29.81;45.92
21395;BME280;10858;42.714;23.180;2022-08-21T08:48:00;93855.84;;;29.57;48.35
21395;BME280;10858;42.714;23.180;2022-08-21T08:50:45;93852.31;;;29.20;52.87
21395;BME280;10858;42.714;23.180;2022-08-21T08:53:22;93843.38;;;29.76;47.94
21395;BME280;10858;42.714;23.180;2022-08-21T08:55:52;93843.50;;;29.55;48.94
21395;BME280;10858;42.714;23.180;2022-08-21T08:58:32;93843.84;;;29.58;48.17
21395;BME280;10858;42.714;23.180;2022-08-21T09:01:00;93845.38;;;29.44;47.03
21395;BME280;10858;42.714;23.180;2022-08-21T09:03:28;93845.94;;;29.46;47.26
21395;BME280;10858;42.714;23.180;2022-08-21T09:06:03;93839.75;;;30.17;47.55
21395;BME280;10858;42.714;23.180;2022-08-21T09:08:50;93833.41;;;31.04;43.42
21395;BME280;10858;42.714;23.180;2022-08-21T09:14:08;93827.66;;;31.26;42.12
21395;BME280;10858;42.714;23.180;2022-08-21T09:27:24;93813.84;;;31.96;43.44
21395;BME280;10858;42.714;23.180;2022-08-21T09:29:53;93810.94;;;31.07;43.46
21395;BME280;10858;42.714;23.180;2022-08-21T09:32:23;93813.41;;;29.96;46.18
21395;BME280;10858;42.714;23.180;2022-08-21T09:34:57;93808.63;;;29.25;47.91
21395;BME280;10858;42.714;23.180;2022-08-21T09:37:25;93802.13;;;30.70;44.80
21395;BME280;10858;42.714;23.180;2022-08-21T09:39:52;93795.00;;;30.64;45.11
21395;BME280;10858;42.714;23.180;2022-08-21T09:42:25;93792.94;;;30.04;45.25
21395;BME280;10858;42.714;23.180;2022-08-21T09:45:12;93800.50;;;29.87;45.54
21395;BME280;10858;42.714;23.180;2022-08-21T09:47:40;93796.00;;;29.19;50.07
21395;BME280;10858;42.714;23.180;2022-08-21T09:50:15;93800.47;;;29.30;46.64
21395;BME280;10858;42.714;23.180;2022-08-21T09:52:53;93785.22;;;28.71;47.14
21395;BME280;10858;42.714;23.180;2022-08-21T09:55:38;93781.88;;;28.95;48.76
21395;BME280;10858;42.714;23.180;2022-08-21T09:58:36;93783.22;;;28.93;48.34
21395;BME280;10858;42.714;23.180;2022-08-21T10:01:05;93770.50;;;28.72;47.48
21395;BME280;10858;42.714;23.180;2022-08-21T10:03:32;93778.63;;;28.40;49.37
21395;BME280;10858;42.714;23.180;2022-08-21T10:06:01;93776.63;;;28.89;48.41
21395;BME280;10858;42.714;23.180;2022-08-21T10:08:32;93777.13;;;29.59;47.13
21395;BME280;10858;42.714;23.180;2022-08-21T10:11:09;93779.59;;;29.14;46.55
21395;BME280;10858;42.714;23.180;2022-08-21T10:14:00;93770.63;;;29.23;45.49
21395;BME280;10858;42.714;23.180;2022-08-21T10:16:48;93766.50;;;30.50;44.58
21395;BME280;10858;42.714;23.180;2022-08-21T10:19:35;93769.88;;;33.27;40.18
21395;BME280;10858;42.714;23.180;2022-08-21T10:25:13;93767.09;;;33.85;37.48
21395;BME280;10858;42.714;23.180;2022-08-21T10:33:39;93750.66;;;34.64;38.32
21395;BME280;10858;42.714;23.180;2022-08-21T10:36:22;93753.16;;;35.49;34.89
21395;BME280;10858;42.714;23.180;2022-08-21T10:38:58;93746.69;;;34.33;37.35
21395;BME280;10858;42.714;23.180;2022-08-21T10:47:06;93739.72;;;32.50;42.25
21395;BME280;10858;42.714;23.180;2022-08-21T10:52:53;93731.16;;;32.13;41.19
21395;BME280;10858;42.714;23.180;2022-08-21T10:55:35;93734.22;;;33.17;40.71
21395;BME280;10858;42.714;23.180;2022-08-21T10:58:25;93724.69;;;33.86;38.63
21395;BME280;10858;42.714;23.180;2022-08-21T11:00:58;93718.88;;;33.87;37.42
21395;BME280;10858;42.714;23.180;2022-08-21T11:03:38;93720.00;;;35.03;36.11
21395;BME280;10858;42.714;23.180;2022-08-21T11:06:19;93721.59;;;36.09;33.91
21395;BME280;10858;42.714;23.180;2022-08-21T11:08:51;93718.31;;;35.53;34.78
21395;BME280;10858;42.714;23.180;2022-08-21T11:11:32;93720.53;;;35.51;33.65
21395;BME280;10858;42.714;23.180;2022-08-21T11:14:20;93713.97;;;35.33;36.02
21395;BME280;10858;42.714;23.180;2022-08-21T11:17:31;93701.31;;;32.79;40.12
21395;BME280;10858;42.714;23.180;2022-08-21T11:23:15;93694.69;;;30.12;42.99
21395;BME280;10858;42.714;23.180;2022-08-21T11:26:23;93693.47;;;29.11;46.59
21395;BME280;10858;42.714;23.180;2022-08-21T11:28:54;93696.31;;;28.85;48.48
21395;BME280;10858;42.714;23.180;2022-08-21T11:31:44;93691.94;;;28.47;48.76
21395;BME280;10858;42.714;23.180;2022-08-21T11:34:21;93687.22;;;28.74;46.50
21395;BME280;10858;42.714;23.180;2022-08-21T11:48:34;93683.91;;;32.16;41.74
21395;BME280;10858;42.714;23.180;2022-08-21T11:51:07;93688.13;;;33.62;39.45
21395;BME280;10858;42.714;23.180;2022-08-21T11:53:46;93679.56;;;33.87;37.76
21395;BME280;10858;42.714;23.180;2022-08-21T11:56:26;93682.94;;;33.31;38.42
21395;BME280;10858;42.714;23.180;2022-08-21T11:58:59;93665.38;;;31.88;39.33
21395;BME280;10858;42.714;23.180;2022-08-21T12:01:38;93673.84;;;31.27;40.10
21395;BME280;10858;42.714;23.180;2022-08-21T12:04:32;93675.59;;;30.63;43.39
21395;BME280;10858;42.714;23.180;2022-08-21T12:07:28;93663.22;;;29.90;45.07
21395;BME280;10858;42.714;23.180;2022-08-21T12:09:57;93655.25;;;29.88;44.38
21395;BME280;10858;42.714;23.180;2022-08-21T12:12:33;93652.34;;;30.40;44.03
21395;BME280;10858;42.714;23.180;2022-08-21T12:15:14;93652.00;;;30.06;44.78
21395;BME280;10858;42.714;23.180;2022-08-21T12:18:02;93654.16;;;29.84;47.30
21395;BME280;10858;42.714;23.180;2022-08-21T12:23:15;93662.38;;;29.79;49.05
21395;BME280;10858;42.714;23.180;2022-08-21T12:26:03;93671.75;;;30.23;46.27
21395;BME280;10858;42.714;23.180;2022-08-21T12:28:35;93672.31;;;30.86;48.76
21395;BME280;10858;42.714;23.180;2022-08-21T12:31:02;93672.50;;;31.20;42.48
21395;BME280;10858;42.714;23.180;2022-08-21T12:33:34;93673.69;;;30.68;44.21
21395;BME280;10858;42.714;23.180;2022-08-21T12:36:12;93667.94;;;30.50;42.59
21395;BME280;10858;42.714;23.180;2022-08-21T12:39:04;93664.03;;;29.90;45.09
21395;BME280;10858;42.714;23.180;2022-08-21T12:44:15;93661.78;;;29.72;45.67
21395;BME280;10858;42.714;23.180;2022-08-21T12:47:04;93657.53;;;29.29;45.21
21395;BME280;10858;42.714;23.180;2022-08-21T12:49:36;93654.97;;;29.08;47.77
21395;BME280;10858;42.714;23.180;2022-08-21T12:52:14;93657.53;;;28.83;48.93
21395;BME280;10858;42.714;23.180;2022-08-21T12:54:44;93655.03;;;28.76;49.89
21395;BME280;10858;42.714;23.180;2022-08-21T12:57:20;93666.06;;;28.54;49.15
21395;BME280;10858;42.714;23.180;2022-08-21T12:59:50;93663.16;;;28.29;48.71
21395;BME280;10858;42.714;23.180;2022-08-21T13:02:20;93656.56;;;28.25;48.77
21395;BME280;10858;42.714;23.180;2022-08-21T13:04:48;93657.56;;;28.88;49.63
21395;BME280;10858;42.714;23.180;2022-08-21T13:07:25;93669.13;;;29.05;47.80
21395;BME280;10858;42.714;23.180;2022-08-21T13:10:03;93669.34;;;28.20;47.98
21395;BME280;10858;42.714;23.180;2022-08-21T13:12:31;93667.78;;;27.97;48.99
21395;BME280;10858;42.714;23.180;2022-08-21T13:15:02;93670.88;;;28.11;50.63
21395;BME280;10858;42.714;23.180;2022-08-21T13:17:33;93660.69;;;28.28;49.79
21395;BME280;10858;42.714;23.180;2022-08-21T13:20:08;93660.00;;;28.47;51.18
21395;BME280;10858;42.714;23.180;2022-08-21T13:22:42;93654.22;;;28.44;49.47
21395;BME280;10858;42.714;23.180;2022-08-21T13:25:19;93652.94;;;28.51;51.06
21395;BME280;10858;42.714;23.180;2022-08-21T13:27:57;93637.94;;;28.17;51.19
21395;BME280;10858;42.714;23.180;2022-08-21T13:30:24;93625.16;;;28.23;51.37
21395;BME280;10858;42.714;23.180;2022-08-21T13:32:55;93632.69;;;27.84;48.75
21395;BME280;10858;42.714;23.180;2022-08-21T13:35:30;93629.78;;;28.22;49.18
21395;BME280;10858;42.714;23.180;2022-08-21T13:38:01;93634.81;;;28.35;48.54
21395;BME280;10858;42.714;23.180;2022-08-21T13:40:53;93643.50;;;28.27;46.83
21395;BME280;10858;42.714;23.180;2022-08-21T13:43:27;93638.06;;;28.32;51.84
21395;BME280;10858;42.714;23.180;2022-08-21T13:45:55;93635.19;;;28.49;50.60
21395;BME280;10858;42.714;23.180;2022-08-21T13:48:25;93628.81;;;28.75;49.77
21395;BME280;10858;42.714;23.180;2022-08-21T13:50:52;93632.41;;;28.81;47.82
21395;BME280;10858;42.714;23.180;2022-08-21T13:53:47;93626.44;;;28.89;46.31
21395;BME280;10858;42.714;23.180;2022-08-21T13:56:26;93634.63;;;28.84;48.14
21395;BME280;10858;42.714;23.180;2022-08-21T13:58:54;93625.19;;;28.60;47.51
21395;BME280;10858;42.714;23.180;2022-08-21T14:01:49;93614.47;;;28.53;47.04
21395;BME280;10858;42.714;23.180;2022-08-21T14:06:47;93618.69;;;28.66;49.67
21395;BME280;10858;42.714;23.180;2022-08-21T14:09:32;93620.22;;;29.03;49.77
21395;BME280;10858;42.714;23.180;2022-08-21T14:12:10;93624.50;;;29.36;50.44
21395;BME280;10858;42.714;23.180;2022-08-21T14:14:39;93620.94;;;29.40;44.39
21395;BME280;10858;42.714;23.180;2022-08-21T14:17:10;93621.25;;;29.44;50.02
21395;BME280;10858;42.714;23.180;2022-08-21T14:19:44;93618.28;;;29.66;46.61
21395;BME280;10858;42.714;23.180;2022-08-21T14:22:27;93628.16;;;29.77;44.07